SXS4BT LSZH-LTAC
Flight info
| Callsign | SXS4BT |
|---|---|
| Flight time | 2h 51m |
| Altitude | 39000 |
| Route | DEGES Z2 TUNUM Z204 GEDSO DCT VEKEN DCT GORPA DCT TIVNU DCT VEBAR DCT NISVA L614 ADORU UA4 TIRER UN644 BKZ UL333 ASMAP L333 LATGA |
| Aircraft | B738/M-SDE2E3FGHIRWXY/LB1 |
Departure
| Time | 2026-05-03 20:44 |
|---|---|
| Airport | Zürich Airport (LSZH) |
Arrival
| Time | 2026-05-03 23:35 |
|---|---|
| Airport | Esenboğa International Airport (LTAC) |
| Time | Latitude | Longitude | Altitude | Speed | Heading |
|---|---|---|---|---|---|
| 2026-05-03 20:15 | 47.46138 | 8.55115 | 1400 ft | 0 kts | 65° |
| 2026-05-03 20:33 | 47.46135 | 8.55105 | 1392 ft | 4 kts | 64° |
| 2026-05-03 20:33 | 47.46125 | 8.55074 | 1392 ft | 4 kts | 64° |
| 2026-05-03 20:33 | 47.46116 | 8.55048 | 1399 ft | 4 kts | 74° |
| 2026-05-03 20:34 | 47.46116 | 8.55023 | 1388 ft | 4 kts | 139° |
| 2026-05-03 20:34 | 47.46134 | 8.55007 | 1389 ft | 3 kts | 155° |
| 2026-05-03 20:34 | 47.46155 | 8.54993 | 1390 ft | 3 kts | 155° |
| 2026-05-03 20:34 | 47.46157 | 8.54991 | 1384 ft | 1 kts | 155° |
| 2026-05-03 20:36 | 47.46145 | 8.55000 | 1389 ft | 4 kts | 155° |
| 2026-05-03 20:37 | 47.46106 | 8.55027 | 1387 ft | 7 kts | 154° |
| 2026-05-03 20:37 | 47.46061 | 8.55058 | 1386 ft | 7 kts | 155° |
| 2026-05-03 20:37 | 47.46017 | 8.55088 | 1401 ft | 7 kts | 155° |
| 2026-05-03 20:37 | 47.45974 | 8.55117 | 1397 ft | 7 kts | 155° |
| 2026-05-03 20:38 | 47.45932 | 8.55147 | 1402 ft | 7 kts | 155° |
| 2026-05-03 20:38 | 47.45899 | 8.55192 | 1399 ft | 7 kts | 113° |
| 2026-05-03 20:38 | 47.45892 | 8.55265 | 1398 ft | 8 kts | 96° |
| 2026-05-03 20:38 | 47.45885 | 8.55368 | 1403 ft | 12 kts | 96° |
| 2026-05-03 20:39 | 47.45876 | 8.55498 | 1405 ft | 16 kts | 96° |
| 2026-05-03 20:39 | 47.45865 | 8.55654 | 1411 ft | 15 kts | 96° |
| 2026-05-03 20:39 | 47.45854 | 8.55805 | 1407 ft | 14 kts | 96° |
| 2026-05-03 20:39 | 47.45844 | 8.55951 | 1409 ft | 14 kts | 95° |
| 2026-05-03 20:40 | 47.45834 | 8.56089 | 1417 ft | 13 kts | 96° |
| 2026-05-03 20:40 | 47.45825 | 8.56211 | 1413 ft | 13 kts | 96° |
| 2026-05-03 20:40 | 47.45815 | 8.56344 | 1420 ft | 14 kts | 96° |
| 2026-05-03 20:40 | 47.45806 | 8.56480 | 1416 ft | 14 kts | 96° |
| 2026-05-03 20:41 | 47.45796 | 8.56617 | 1422 ft | 13 kts | 96° |
| 2026-05-03 20:41 | 47.45787 | 8.56746 | 1419 ft | 13 kts | 96° |
| 2026-05-03 20:41 | 47.45778 | 8.56874 | 1421 ft | 12 kts | 96° |
| 2026-05-03 20:41 | 47.45770 | 8.56971 | 1423 ft | 7 kts | 102° |
| 2026-05-03 20:42 | 47.45740 | 8.57028 | 1424 ft | 7 kts | 149° |
| 2026-05-03 20:42 | 47.45693 | 8.57030 | 1424 ft | 6 kts | 186° |
| 2026-05-03 20:42 | 47.45666 | 8.57014 | 1424 ft | 4 kts | 233° |
| 2026-05-03 20:42 | 47.45665 | 8.56974 | 1423 ft | 0 kts | 276° |
| 2026-05-03 20:43 | 47.45666 | 8.56965 | 1423 ft | 9 kts | 276° |
| 2026-05-03 20:43 | 47.45698 | 8.56507 | 1415 ft | 81 kts | 276° |
| 2026-05-03 20:44 | 47.45780 | 8.55351 | 1404 ft | 142 kts | 276° |
| 2026-05-03 20:44 | 47.45894 | 8.53710 | 1704 ft | 163 kts | 276° |
| 2026-05-03 20:44 | 47.46012 | 8.52044 | 2409 ft | 165 kts | 276° |
| 2026-05-03 20:44 | 47.46130 | 8.50341 | 3028 ft | 168 kts | 275° |
| 2026-05-03 20:45 | 47.46241 | 8.48616 | 3683 ft | 168 kts | 270° |
| 2026-05-03 20:45 | 47.45832 | 8.47062 | 4304 ft | 168 kts | 224° |
| 2026-05-03 20:45 | 47.44946 | 8.45884 | 4791 ft | 182 kts | 224° |
| 2026-05-03 20:45 | 47.43951 | 8.44511 | 5001 ft | 208 kts | 231° |
| 2026-05-03 20:46 | 47.43394 | 8.42503 | 5254 ft | 220 kts | 261° |
| 2026-05-03 20:46 | 47.43057 | 8.40264 | 5752 ft | 226 kts | 257° |
| 2026-05-03 20:46 | 47.42590 | 8.38050 | 6349 ft | 229 kts | 243° |
| 2026-05-03 20:46 | 47.41446 | 8.36415 | 6932 ft | 235 kts | 207° |
| 2026-05-03 20:47 | 47.39843 | 8.35922 | 7513 ft | 240 kts | 176° |
| 2026-05-03 20:47 | 47.38269 | 8.36708 | 8133 ft | 243 kts | 145° |
| 2026-05-03 20:47 | 47.37182 | 8.38588 | 8743 ft | 245 kts | 113° |
| 2026-05-03 20:47 | 47.36921 | 8.41045 | 9351 ft | 248 kts | 81° |
| 2026-05-03 20:48 | 47.37579 | 8.43379 | 10080 ft | 248 kts | 49° |
| 2026-05-03 20:48 | 47.38978 | 8.44817 | 10781 ft | 250 kts | 18° |
| 2026-05-03 20:48 | 47.40656 | 8.45560 | 11454 ft | 254 kts | 22° |
| 2026-05-03 20:48 | 47.42060 | 8.47121 | 12068 ft | 259 kts | 52° |
| 2026-05-03 20:49 | 47.43176 | 8.49348 | 12379 ft | 280 kts | 56° |
| 2026-05-03 20:49 | 47.44353 | 8.51760 | 12727 ft | 300 kts | 55° |
| 2026-05-03 20:49 | 47.45508 | 8.54433 | 12992 ft | 320 kts | 69° |
| 2026-05-03 20:49 | 47.45915 | 8.57734 | 13331 ft | 334 kts | 89° |
| 2026-05-03 20:50 | 47.45999 | 8.61225 | 13823 ft | 347 kts | 89° |
| 2026-05-03 20:50 | 47.46102 | 8.64860 | 14315 ft | 359 kts | 89° |
| 2026-05-03 20:50 | 47.46222 | 8.68600 | 14843 ft | 369 kts | 88° |
| 2026-05-03 20:50 | 47.46359 | 8.72424 | 15607 ft | 373 kts | 88° |
| 2026-05-03 20:51 | 47.46501 | 8.76259 | 16390 ft | 376 kts | 88° |
| 2026-05-03 20:51 | 47.46644 | 8.80145 | 17096 ft | 381 kts | 88° |
| 2026-05-03 20:51 | 47.46594 | 8.84075 | 17722 ft | 385 kts | 100° |
| 2026-05-03 20:51 | 47.46009 | 8.87954 | 18397 ft | 388 kts | 105° |
| 2026-05-03 20:52 | 47.45369 | 8.91851 | 19062 ft | 392 kts | 104° |
| 2026-05-03 20:52 | 47.44771 | 8.95759 | 19710 ft | 395 kts | 103° |
| 2026-05-03 20:52 | 47.44193 | 8.99749 | 20333 ft | 399 kts | 103° |
| 2026-05-03 20:52 | 47.43618 | 9.03789 | 20953 ft | 403 kts | 103° |
| 2026-05-03 20:53 | 47.43039 | 9.07852 | 21566 ft | 406 kts | 103° |
| 2026-05-03 20:53 | 47.42447 | 9.11949 | 22162 ft | 409 kts | 103° |
| 2026-05-03 20:53 | 47.41846 | 9.16090 | 22716 ft | 413 kts | 103° |
| 2026-05-03 20:53 | 47.41388 | 9.20299 | 23236 ft | 418 kts | 91° |
| 2026-05-03 20:54 | 47.41568 | 9.23136 | 23567 ft | 421 kts | 78° |
| 2026-05-03 20:54 | 47.42941 | 9.31591 | 24666 ft | 426 kts | 77° |
| 2026-05-03 20:54 | 47.43620 | 9.35865 | 25140 ft | 430 kts | 77° |
| 2026-05-03 20:55 | 47.44287 | 9.40186 | 25608 ft | 433 kts | 78° |
| 2026-05-03 20:55 | 47.44946 | 9.44539 | 26066 ft | 436 kts | 78° |
| 2026-05-03 20:55 | 47.45604 | 9.48917 | 26510 ft | 438 kts | 78° |
| 2026-05-03 20:55 | 47.46262 | 9.53322 | 26934 ft | 441 kts | 78° |
| 2026-05-03 20:56 | 47.46907 | 9.57769 | 27344 ft | 443 kts | 81° |
| 2026-05-03 20:56 | 47.47210 | 9.62313 | 27734 ft | 445 kts | 90° |
| 2026-05-03 20:56 | 47.47029 | 9.66887 | 28133 ft | 447 kts | 96° |
| 2026-05-03 20:56 | 47.46745 | 9.71467 | 28524 ft | 449 kts | 96° |
| 2026-05-03 20:57 | 47.46451 | 9.76072 | 28879 ft | 452 kts | 96° |
| 2026-05-03 20:57 | 47.46164 | 9.80705 | 29225 ft | 454 kts | 96° |
| 2026-05-03 20:57 | 47.45888 | 9.85369 | 29560 ft | 456 kts | 95° |
| 2026-05-03 20:57 | 47.45620 | 9.90057 | 29906 ft | 458 kts | 95° |
| 2026-05-03 20:58 | 47.45354 | 9.94755 | 30232 ft | 461 kts | 95° |
| 2026-05-03 20:58 | 47.45087 | 9.99483 | 30544 ft | 463 kts | 95° |
| 2026-05-03 20:58 | 47.44816 | 10.04242 | 30823 ft | 466 kts | 95° |
| 2026-05-03 20:58 | 47.44542 | 10.09032 | 31100 ft | 468 kts | 95° |
| 2026-05-03 20:59 | 47.44268 | 10.13761 | 31413 ft | 469 kts | 95° |
| 2026-05-03 20:59 | 47.43977 | 10.18563 | 31813 ft | 468 kts | 97° |
| 2026-05-03 20:59 | 47.43474 | 10.23308 | 32211 ft | 467 kts | 101° |
| 2026-05-03 20:59 | 47.42817 | 10.28014 | 32566 ft | 467 kts | 103° |
| 2026-05-03 21:00 | 47.42126 | 10.32695 | 32908 ft | 467 kts | 102° |
| 2026-05-03 21:00 | 47.41675 | 10.35789 | 33135 ft | 467 kts | 102° |
| 2026-05-03 21:00 | 47.40797 | 10.42073 | 33566 ft | 467 kts | 102° |
| 2026-05-03 21:00 | 47.40159 | 10.46775 | 33903 ft | 466 kts | 101° |
| 2026-05-03 21:01 | 47.39524 | 10.51464 | 34238 ft | 466 kts | 102° |
| 2026-05-03 21:01 | 47.38882 | 10.56149 | 34533 ft | 465 kts | 102° |
| 2026-05-03 21:01 | 47.38237 | 10.60825 | 34847 ft | 465 kts | 102° |
| 2026-05-03 21:01 | 47.37587 | 10.65499 | 35170 ft | 464 kts | 102° |
| 2026-05-03 21:02 | 47.36938 | 10.70149 | 35494 ft | 463 kts | 102° |
| 2026-05-03 21:02 | 47.36288 | 10.74804 | 35789 ft | 462 kts | 102° |
| 2026-05-03 21:02 | 47.35646 | 10.79384 | 36087 ft | 461 kts | 102° |
| 2026-05-03 21:02 | 47.34996 | 10.84015 | 36369 ft | 461 kts | 102° |
| 2026-05-03 21:03 | 47.34345 | 10.88641 | 36599 ft | 462 kts | 102° |
| 2026-05-03 21:03 | 47.33690 | 10.93270 | 36907 ft | 460 kts | 102° |
| 2026-05-03 21:03 | 47.33039 | 10.97853 | 37462 ft | 452 kts | 102° |
| 2026-05-03 21:03 | 47.32399 | 11.02366 | 37904 ft | 447 kts | 102° |
| 2026-05-03 21:04 | 47.31762 | 11.06859 | 38069 ft | 449 kts | 102° |
| 2026-05-03 21:04 | 47.31119 | 11.11370 | 38169 ft | 452 kts | 102° |
| 2026-05-03 21:04 | 47.30467 | 11.15923 | 38359 ft | 452 kts | 102° |
| 2026-05-03 21:04 | 47.29817 | 11.20444 | 38616 ft | 451 kts | 102° |
| 2026-05-03 21:05 | 47.29168 | 11.24953 | 38843 ft | 450 kts | 102° |
| 2026-05-03 21:05 | 47.28517 | 11.29460 | 38999 ft | 451 kts | 102° |
| 2026-05-03 21:05 | 47.27203 | 11.38516 | 39025 ft | 454 kts | 102° |
| 2026-05-03 21:06 | 47.25830 | 11.47579 | 39010 ft | 446 kts | 108° |
| 2026-05-03 21:06 | 47.23204 | 11.55693 | 39009 ft | 442 kts | 126° |
| 2026-05-03 21:07 | 47.19616 | 11.63050 | 39038 ft | 442 kts | 126° |
| 2026-05-03 21:07 | 47.16029 | 11.70418 | 39038 ft | 443 kts | 126° |
| 2026-05-03 21:08 | 47.12474 | 11.77824 | 39058 ft | 444 kts | 126° |
| 2026-05-03 21:08 | 47.08910 | 11.85248 | 39076 ft | 445 kts | 126° |
| 2026-05-03 21:09 | 47.05884 | 11.93157 | 39117 ft | 442 kts | 116° |
| 2026-05-03 21:09 | 47.03219 | 12.01230 | 39122 ft | 444 kts | 116° |
| 2026-05-03 21:10 | 47.00527 | 12.09461 | 39142 ft | 446 kts | 116° |
| 2026-05-03 21:10 | 46.97813 | 12.17613 | 39152 ft | 448 kts | 116° |
| 2026-05-03 21:11 | 46.95049 | 12.25820 | 39162 ft | 450 kts | 116° |
| 2026-05-03 21:11 | 46.92263 | 12.34056 | 39155 ft | 452 kts | 116° |
| 2026-05-03 21:12 | 46.89481 | 12.42244 | 39162 ft | 452 kts | 116° |
| 2026-05-03 21:12 | 46.86674 | 12.50470 | 39165 ft | 450 kts | 116° |
| 2026-05-03 21:13 | 46.83905 | 12.58670 | 39159 ft | 450 kts | 117° |
| 2026-05-03 21:13 | 46.81097 | 12.66824 | 39155 ft | 449 kts | 116° |
| 2026-05-03 21:14 | 46.78301 | 12.74961 | 39153 ft | 448 kts | 117° |
| 2026-05-03 21:14 | 46.75507 | 12.83048 | 39139 ft | 448 kts | 117° |
| 2026-05-03 21:15 | 46.72708 | 12.91159 | 39134 ft | 448 kts | 116° |
| 2026-05-03 21:15 | 46.69922 | 12.99321 | 39143 ft | 448 kts | 117° |
| 2026-05-03 21:16 | 46.67076 | 13.07391 | 39153 ft | 447 kts | 117° |
| 2026-05-03 21:16 | 46.64242 | 13.15479 | 39141 ft | 448 kts | 117° |
| 2026-05-03 21:17 | 46.61895 | 13.22186 | 39127 ft | 448 kts | 117° |
| 2026-05-03 21:17 | 46.58597 | 13.31593 | 39120 ft | 449 kts | 117° |
| 2026-05-03 21:18 | 46.55747 | 13.39662 | 39109 ft | 449 kts | 118° |
| 2026-05-03 21:18 | 46.52714 | 13.47584 | 39110 ft | 448 kts | 119° |
| 2026-05-03 21:19 | 46.49613 | 13.55442 | 39107 ft | 449 kts | 119° |
| 2026-05-03 21:19 | 46.46517 | 13.63312 | 39102 ft | 449 kts | 119° |
| 2026-05-03 21:20 | 46.43431 | 13.71188 | 39099 ft | 450 kts | 119° |
| 2026-05-03 21:20 | 46.40361 | 13.79031 | 39100 ft | 450 kts | 119° |
| 2026-05-03 21:21 | 46.37258 | 13.86933 | 39092 ft | 451 kts | 119° |
| 2026-05-03 21:21 | 46.34148 | 13.94836 | 39093 ft | 451 kts | 119° |
| 2026-05-03 21:22 | 46.31030 | 14.02731 | 39090 ft | 452 kts | 119° |
| 2026-05-03 21:22 | 46.27904 | 14.10613 | 39093 ft | 452 kts | 119° |
| 2026-05-03 21:23 | 46.24775 | 14.18488 | 39092 ft | 452 kts | 119° |
| 2026-05-03 21:23 | 46.21647 | 14.26342 | 39096 ft | 450 kts | 119° |
| 2026-05-03 21:24 | 46.18538 | 14.34131 | 39099 ft | 450 kts | 119° |
| 2026-05-03 21:24 | 46.15408 | 14.41950 | 39101 ft | 450 kts | 120° |
| 2026-05-03 21:25 | 46.12269 | 14.49765 | 39101 ft | 450 kts | 119° |
| 2026-05-03 21:25 | 46.09127 | 14.57558 | 39103 ft | 450 kts | 120° |
| 2026-05-03 21:26 | 46.05976 | 14.65349 | 39104 ft | 450 kts | 120° |
| 2026-05-03 21:26 | 46.02839 | 14.73084 | 39101 ft | 450 kts | 120° |
| 2026-05-03 21:27 | 45.99677 | 14.80870 | 39107 ft | 451 kts | 120° |
| 2026-05-03 21:27 | 45.96508 | 14.88655 | 39099 ft | 451 kts | 120° |
| 2026-05-03 21:28 | 45.93332 | 14.96426 | 39105 ft | 451 kts | 120° |
| 2026-05-03 21:28 | 45.90148 | 15.04190 | 39100 ft | 451 kts | 120° |
| 2026-05-03 21:29 | 45.86956 | 15.11961 | 39104 ft | 451 kts | 120° |
| 2026-05-03 21:29 | 45.83761 | 15.19717 | 39098 ft | 451 kts | 120° |
| 2026-05-03 21:30 | 45.80563 | 15.27468 | 39101 ft | 451 kts | 120° |
| 2026-05-03 21:30 | 45.77384 | 15.35134 | 39104 ft | 451 kts | 120° |
| 2026-05-03 21:31 | 45.74034 | 15.42712 | 39096 ft | 450 kts | 122° |
| 2026-05-03 21:31 | 45.70535 | 15.50144 | 39102 ft | 450 kts | 123° |
| 2026-05-03 21:32 | 45.67045 | 15.57575 | 39101 ft | 450 kts | 122° |
| 2026-05-03 21:32 | 45.63571 | 15.65023 | 39101 ft | 450 kts | 122° |
| 2026-05-03 21:33 | 45.60110 | 15.72464 | 39101 ft | 450 kts | 122° |
| 2026-05-03 21:33 | 45.56638 | 15.79916 | 39102 ft | 450 kts | 122° |
| 2026-05-03 21:34 | 45.53165 | 15.87349 | 39104 ft | 450 kts | 122° |
| 2026-05-03 21:34 | 45.49682 | 15.94776 | 39102 ft | 450 kts | 122° |
| 2026-05-03 21:35 | 45.46195 | 16.02190 | 39102 ft | 450 kts | 122° |
| 2026-05-03 21:35 | 45.42703 | 16.09602 | 39101 ft | 450 kts | 122° |
| 2026-05-03 21:36 | 45.39208 | 16.17001 | 39102 ft | 450 kts | 122° |
| 2026-05-03 21:36 | 45.35710 | 16.24385 | 39106 ft | 450 kts | 122° |
| 2026-05-03 21:37 | 45.32207 | 16.31762 | 39113 ft | 450 kts | 122° |
| 2026-05-03 21:37 | 45.28715 | 16.39096 | 39113 ft | 451 kts | 122° |
| 2026-05-03 21:38 | 45.25195 | 16.46464 | 39110 ft | 451 kts | 122° |
| 2026-05-03 21:38 | 45.21671 | 16.53827 | 39111 ft | 451 kts | 122° |
| 2026-05-03 21:39 | 45.18144 | 16.61179 | 39113 ft | 451 kts | 122° |
| 2026-05-03 21:39 | 45.14612 | 16.68521 | 39119 ft | 451 kts | 122° |
| 2026-05-03 21:40 | 45.11075 | 16.75855 | 39124 ft | 451 kts | 123° |
| 2026-05-03 21:40 | 45.07531 | 16.83183 | 39122 ft | 451 kts | 122° |
| 2026-05-03 21:41 | 45.03977 | 16.90517 | 39127 ft | 452 kts | 123° |
| 2026-05-03 21:41 | 45.01022 | 16.96604 | 39129 ft | 452 kts | 122° |
| 2026-05-03 21:42 | 44.96879 | 17.05111 | 39127 ft | 452 kts | 122° |
| 2026-05-03 21:42 | 44.94190 | 17.11485 | 39135 ft | 450 kts | 116° |
| 2026-05-03 21:43 | 44.91308 | 17.19309 | 39128 ft | 449 kts | 115° |
| 2026-05-03 21:43 | 44.88435 | 17.27141 | 39137 ft | 450 kts | 115° |
| 2026-05-03 21:44 | 44.85512 | 17.34939 | 39132 ft | 450 kts | 116° |
| 2026-05-03 21:44 | 44.82562 | 17.42710 | 39126 ft | 449 kts | 116° |
| 2026-05-03 21:45 | 44.79605 | 17.50457 | 39134 ft | 450 kts | 116° |
| 2026-05-03 21:45 | 44.77642 | 17.55594 | 39128 ft | 450 kts | 116° |
| 2026-05-03 21:46 | 44.70541 | 17.74092 | 39132 ft | 450 kts | 116° |
| 2026-05-03 21:47 | 44.67555 | 17.81834 | 39142 ft | 450 kts | 116° |
| 2026-05-03 21:47 | 44.64559 | 17.89579 | 39140 ft | 451 kts | 116° |
| 2026-05-03 21:48 | 44.61580 | 17.97264 | 39136 ft | 451 kts | 116° |
| 2026-05-03 21:48 | 44.58571 | 18.05003 | 39148 ft | 452 kts | 116° |
| 2026-05-03 21:49 | 44.55558 | 18.12729 | 39146 ft | 452 kts | 116° |
| 2026-05-03 21:49 | 44.52535 | 18.20458 | 39144 ft | 452 kts | 116° |
| 2026-05-03 21:50 | 44.49505 | 18.28180 | 39147 ft | 452 kts | 116° |
| 2026-05-03 21:50 | 44.46476 | 18.35884 | 39150 ft | 451 kts | 116° |
| 2026-05-03 21:51 | 44.43446 | 18.43574 | 39150 ft | 451 kts | 116° |
| 2026-05-03 21:51 | 44.40409 | 18.51256 | 39159 ft | 451 kts | 116° |
| 2026-05-03 21:52 | 44.37363 | 18.58931 | 39159 ft | 450 kts | 117° |
| 2026-05-03 21:52 | 44.34320 | 18.66594 | 39158 ft | 451 kts | 117° |
| 2026-05-03 21:53 | 44.31289 | 18.74199 | 39157 ft | 451 kts | 117° |
| 2026-05-03 21:53 | 44.28237 | 18.81838 | 39157 ft | 451 kts | 117° |
| 2026-05-03 21:54 | 44.25182 | 18.89463 | 39155 ft | 450 kts | 117° |
| 2026-05-03 21:54 | 44.22121 | 18.97085 | 39155 ft | 450 kts | 117° |
| 2026-05-03 21:55 | 44.19061 | 19.04681 | 39159 ft | 449 kts | 117° |
| 2026-05-03 21:55 | 44.15990 | 19.12286 | 39162 ft | 450 kts | 117° |
| 2026-05-03 21:56 | 44.12991 | 19.19933 | 39160 ft | 449 kts | 112° |
| 2026-05-03 21:56 | 44.10556 | 19.27856 | 39164 ft | 448 kts | 110° |
| 2026-05-03 21:57 | 44.08222 | 19.35880 | 39168 ft | 447 kts | 110° |
| 2026-05-03 21:57 | 44.05848 | 19.43885 | 39168 ft | 447 kts | 110° |
| 2026-05-03 21:58 | 44.03442 | 19.51862 | 39166 ft | 447 kts | 110° |
| 2026-05-03 21:58 | 44.01019 | 19.59832 | 39163 ft | 447 kts | 110° |
| 2026-05-03 21:59 | 43.98593 | 19.67769 | 39172 ft | 447 kts | 110° |
| 2026-05-03 21:59 | 43.96173 | 19.75663 | 39180 ft | 447 kts | 111° |
| 2026-05-03 22:00 | 43.93731 | 19.83602 | 39175 ft | 448 kts | 111° |
| 2026-05-03 22:00 | 43.91281 | 19.91556 | 39180 ft | 449 kts | 111° |
| 2026-05-03 22:01 | 43.88816 | 19.99527 | 39176 ft | 449 kts | 111° |
| 2026-05-03 22:01 | 43.86350 | 20.07478 | 39179 ft | 449 kts | 111° |
| 2026-05-03 22:02 | 43.83883 | 20.15418 | 39193 ft | 448 kts | 111° |
| 2026-05-03 22:02 | 43.81407 | 20.23348 | 39182 ft | 448 kts | 111° |
| 2026-05-03 22:03 | 43.78931 | 20.31267 | 39181 ft | 448 kts | 111° |
| 2026-05-03 22:03 | 43.76451 | 20.39161 | 39195 ft | 447 kts | 111° |
| 2026-05-03 22:04 | 43.73981 | 20.47002 | 39183 ft | 447 kts | 111° |
| 2026-05-03 22:04 | 43.71493 | 20.54876 | 39183 ft | 447 kts | 111° |
| 2026-05-03 22:05 | 43.68996 | 20.62762 | 39185 ft | 447 kts | 111° |
| 2026-05-03 22:05 | 43.66493 | 20.70638 | 39180 ft | 448 kts | 111° |
| 2026-05-03 22:06 | 43.63990 | 20.78475 | 39192 ft | 448 kts | 111° |
| 2026-05-03 22:06 | 43.61472 | 20.86361 | 39191 ft | 449 kts | 111° |
| 2026-05-03 22:07 | 43.58948 | 20.94253 | 39181 ft | 450 kts | 111° |
| 2026-05-03 22:07 | 43.56406 | 21.02149 | 39182 ft | 450 kts | 111° |
| 2026-05-03 22:08 | 43.53858 | 21.10046 | 39193 ft | 450 kts | 111° |
| 2026-05-03 22:08 | 43.51304 | 21.17934 | 39197 ft | 451 kts | 111° |
| 2026-05-03 22:09 | 43.48746 | 21.25818 | 39201 ft | 450 kts | 111° |
| 2026-05-03 22:10 | 43.44905 | 21.37619 | 39208 ft | 450 kts | 111° |
| 2026-05-03 22:10 | 43.42341 | 21.45462 | 39205 ft | 450 kts | 111° |
| 2026-05-03 22:11 | 43.39787 | 21.53257 | 39210 ft | 450 kts | 111° |
| 2026-05-03 22:11 | 43.37206 | 21.61105 | 39211 ft | 450 kts | 112° |
| 2026-05-03 22:12 | 43.34629 | 21.68922 | 39207 ft | 449 kts | 112° |
| 2026-05-03 22:12 | 43.32482 | 21.75423 | 39211 ft | 449 kts | 112° |
| 2026-05-03 22:13 | 43.29895 | 21.83227 | 39211 ft | 448 kts | 112° |
| 2026-05-03 22:13 | 43.27303 | 21.91017 | 39210 ft | 448 kts | 112° |
| 2026-05-03 22:14 | 43.24710 | 21.98794 | 39211 ft | 448 kts | 112° |
| 2026-05-03 22:14 | 43.22107 | 22.06576 | 39211 ft | 449 kts | 112° |
| 2026-05-03 22:15 | 43.19503 | 22.14346 | 39206 ft | 449 kts | 112° |
| 2026-05-03 22:15 | 43.16889 | 22.22115 | 39213 ft | 450 kts | 112° |
| 2026-05-03 22:16 | 43.14262 | 22.29904 | 39205 ft | 450 kts | 112° |
| 2026-05-03 22:16 | 43.11629 | 22.37688 | 39207 ft | 450 kts | 112° |
| 2026-05-03 22:17 | 43.09012 | 22.45411 | 39207 ft | 450 kts | 112° |
| 2026-05-03 22:17 | 43.06366 | 22.53188 | 39197 ft | 450 kts | 112° |
| 2026-05-03 22:18 | 43.03718 | 22.60947 | 39192 ft | 451 kts | 113° |
| 2026-05-03 22:18 | 43.01064 | 22.68711 | 39194 ft | 451 kts | 113° |
| 2026-05-03 22:19 | 42.98405 | 22.76471 | 39197 ft | 451 kts | 113° |
| 2026-05-03 22:19 | 42.95845 | 22.84270 | 39201 ft | 450 kts | 110° |
| 2026-05-03 22:20 | 42.93522 | 22.92200 | 39199 ft | 449 kts | 109° |
| 2026-05-03 22:20 | 42.91223 | 23.00124 | 39201 ft | 449 kts | 110° |
| 2026-05-03 22:21 | 42.88885 | 23.08052 | 39193 ft | 450 kts | 110° |
| 2026-05-03 22:21 | 42.86547 | 23.15897 | 39183 ft | 450 kts | 110° |
| 2026-05-03 22:22 | 42.84175 | 23.23795 | 39183 ft | 449 kts | 110° |
| 2026-05-03 22:22 | 42.81806 | 23.31669 | 39185 ft | 449 kts | 110° |
| 2026-05-03 22:23 | 42.79433 | 23.39548 | 39187 ft | 450 kts | 110° |
| 2026-05-03 22:23 | 42.77052 | 23.47438 | 39180 ft | 450 kts | 111° |
| 2026-05-03 22:24 | 42.74663 | 23.55324 | 39182 ft | 450 kts | 111° |
| 2026-05-03 22:24 | 42.72279 | 23.63165 | 39196 ft | 451 kts | 111° |
| 2026-05-03 22:25 | 42.69875 | 23.71045 | 39191 ft | 451 kts | 111° |
| 2026-05-03 22:25 | 42.67467 | 23.78932 | 39182 ft | 452 kts | 111° |
| 2026-05-03 22:26 | 42.65138 | 23.86861 | 39195 ft | 452 kts | 109° |
| 2026-05-03 22:26 | 42.62990 | 23.94888 | 39178 ft | 453 kts | 109° |
| 2026-05-03 22:27 | 42.60810 | 24.02904 | 39171 ft | 452 kts | 109° |
| 2026-05-03 22:27 | 42.58600 | 24.10898 | 39177 ft | 452 kts | 109° |
| 2026-05-03 22:28 | 42.56379 | 24.18891 | 39167 ft | 452 kts | 109° |
| 2026-05-03 22:28 | 42.54154 | 24.26874 | 39166 ft | 452 kts | 109° |
| 2026-05-03 22:29 | 42.51928 | 24.34842 | 39165 ft | 452 kts | 110° |
| 2026-05-03 22:29 | 42.49711 | 24.42749 | 39171 ft | 451 kts | 110° |
| 2026-05-03 22:30 | 42.47476 | 24.50707 | 39159 ft | 452 kts | 110° |
| 2026-05-03 22:30 | 42.45238 | 24.58653 | 39155 ft | 451 kts | 110° |
| 2026-05-03 22:31 | 42.42993 | 24.66589 | 39156 ft | 451 kts | 110° |
| 2026-05-03 22:31 | 42.40742 | 24.74510 | 39157 ft | 450 kts | 110° |
| 2026-05-03 22:32 | 42.38493 | 24.82415 | 39156 ft | 450 kts | 110° |
| 2026-05-03 22:32 | 42.36243 | 24.90305 | 39160 ft | 449 kts | 110° |
| 2026-05-03 22:33 | 42.33992 | 24.98166 | 39153 ft | 448 kts | 110° |
| 2026-05-03 22:33 | 42.31736 | 25.06019 | 39158 ft | 448 kts | 110° |
| 2026-05-03 22:34 | 42.29487 | 25.13833 | 39158 ft | 449 kts | 110° |
| 2026-05-03 22:34 | 42.27210 | 25.21703 | 39160 ft | 449 kts | 110° |
| 2026-05-03 22:35 | 42.24930 | 25.29563 | 39152 ft | 450 kts | 110° |
| 2026-05-03 22:35 | 42.22645 | 25.37420 | 39160 ft | 450 kts | 111° |
| 2026-05-03 22:36 | 42.20355 | 25.45277 | 39156 ft | 450 kts | 111° |
| 2026-05-03 22:36 | 42.18060 | 25.53127 | 39157 ft | 450 kts | 111° |
| 2026-05-03 22:37 | 42.15759 | 25.60972 | 39157 ft | 449 kts | 111° |
| 2026-05-03 22:37 | 42.13459 | 25.68812 | 39157 ft | 450 kts | 111° |
| 2026-05-03 22:38 | 42.11158 | 25.76648 | 39150 ft | 450 kts | 111° |
| 2026-05-03 22:38 | 42.08874 | 25.84443 | 39129 ft | 451 kts | 110° |
| 2026-05-03 22:39 | 42.06542 | 25.92299 | 39138 ft | 451 kts | 111° |
| 2026-05-03 22:39 | 42.04207 | 26.00138 | 39119 ft | 451 kts | 111° |
| 2026-05-03 22:40 | 42.01878 | 26.07966 | 39120 ft | 450 kts | 111° |
| 2026-05-03 22:40 | 41.99539 | 26.15778 | 39119 ft | 450 kts | 111° |
| 2026-05-03 22:41 | 41.97202 | 26.23583 | 39119 ft | 449 kts | 111° |
| 2026-05-03 22:41 | 41.94863 | 26.31372 | 39118 ft | 449 kts | 111° |
| 2026-05-03 22:42 | 41.92516 | 26.39156 | 39105 ft | 450 kts | 111° |
| 2026-05-03 22:42 | 41.90179 | 26.46898 | 39101 ft | 450 kts | 111° |
| 2026-05-03 22:43 | 41.87821 | 26.54675 | 39102 ft | 450 kts | 111° |
| 2026-05-03 22:43 | 41.85181 | 26.62283 | 39096 ft | 450 kts | 117° |
| 2026-05-03 22:44 | 41.82196 | 26.69671 | 39094 ft | 451 kts | 118° |
| 2026-05-03 22:44 | 41.79207 | 26.77059 | 39090 ft | 451 kts | 118° |
| 2026-05-03 22:45 | 41.76258 | 26.84465 | 39092 ft | 451 kts | 117° |
| 2026-05-03 22:45 | 41.73322 | 26.91877 | 39086 ft | 450 kts | 117° |
| 2026-05-03 22:46 | 41.70380 | 26.99287 | 39082 ft | 450 kts | 117° |
| 2026-05-03 22:46 | 41.67429 | 27.06684 | 39084 ft | 450 kts | 118° |
| 2026-05-03 22:47 | 41.64492 | 27.14037 | 39074 ft | 450 kts | 118° |
| 2026-05-03 22:47 | 41.61536 | 27.21419 | 39079 ft | 450 kts | 118° |
| 2026-05-03 22:48 | 41.58572 | 27.28803 | 39068 ft | 451 kts | 118° |
| 2026-05-03 22:48 | 41.55602 | 27.36177 | 39064 ft | 450 kts | 118° |
| 2026-05-03 22:49 | 41.52622 | 27.43547 | 39058 ft | 451 kts | 118° |
| 2026-05-03 22:49 | 41.49638 | 27.50909 | 39054 ft | 451 kts | 118° |
| 2026-05-03 22:50 | 41.46662 | 27.58232 | 39052 ft | 452 kts | 118° |
| 2026-05-03 22:50 | 41.43669 | 27.65597 | 39042 ft | 452 kts | 118° |
| 2026-05-03 22:51 | 41.40665 | 27.72960 | 39037 ft | 451 kts | 118° |
| 2026-05-03 22:51 | 41.37661 | 27.80306 | 39034 ft | 452 kts | 118° |
| 2026-05-03 22:52 | 41.34649 | 27.87649 | 39026 ft | 452 kts | 118° |
| 2026-05-03 22:52 | 41.31635 | 27.94983 | 39029 ft | 452 kts | 118° |
| 2026-05-03 22:53 | 41.28619 | 28.02305 | 39011 ft | 451 kts | 118° |
| 2026-05-03 22:53 | 41.25621 | 28.09570 | 39018 ft | 451 kts | 119° |
| 2026-05-03 22:54 | 41.22607 | 28.16852 | 39012 ft | 450 kts | 119° |
| 2026-05-03 22:54 | 41.19586 | 28.24132 | 39009 ft | 450 kts | 119° |
| 2026-05-03 22:55 | 41.16561 | 28.31406 | 39008 ft | 450 kts | 119° |
| 2026-05-03 22:55 | 41.14101 | 28.39026 | 39000 ft | 451 kts | 104° |
| 2026-05-03 22:56 | 41.13419 | 28.47275 | 39008 ft | 451 kts | 91° |
| 2026-05-03 22:56 | 41.13400 | 28.55573 | 38991 ft | 452 kts | 90° |
| 2026-05-03 22:57 | 41.13363 | 28.63914 | 38988 ft | 452 kts | 91° |
| 2026-05-03 22:57 | 41.13280 | 28.72203 | 38994 ft | 452 kts | 91° |
| 2026-05-03 22:58 | 41.13175 | 28.80551 | 38988 ft | 452 kts | 91° |
| 2026-05-03 22:58 | 41.13065 | 28.88902 | 38983 ft | 452 kts | 91° |
| 2026-05-03 22:59 | 41.12953 | 28.97251 | 38979 ft | 453 kts | 91° |
| 2026-05-03 22:59 | 41.12829 | 29.05605 | 38979 ft | 452 kts | 92° |
| 2026-05-03 23:00 | 41.12511 | 29.13925 | 38962 ft | 451 kts | 101° |
| 2026-05-03 23:00 | 41.10665 | 29.21845 | 38982 ft | 450 kts | 112° |
| 2026-05-03 23:01 | 41.08373 | 29.29516 | 38973 ft | 450 kts | 112° |
| 2026-05-03 23:01 | 41.06099 | 29.37251 | 38975 ft | 450 kts | 111° |
| 2026-05-03 23:02 | 41.04234 | 29.43693 | 38965 ft | 450 kts | 111° |
| 2026-05-03 23:02 | 41.01993 | 29.51451 | 38956 ft | 451 kts | 111° |
| 2026-05-03 23:03 | 40.99750 | 29.59187 | 38962 ft | 450 kts | 111° |
| 2026-05-03 23:03 | 40.97483 | 29.66910 | 38964 ft | 450 kts | 113° |
| 2026-05-03 23:04 | 40.95008 | 29.74521 | 38959 ft | 449 kts | 114° |
| 2026-05-03 23:04 | 40.92515 | 29.82115 | 38951 ft | 449 kts | 114° |
| 2026-05-03 23:05 | 40.90063 | 29.89652 | 38952 ft | 449 kts | 114° |
| 2026-05-03 23:05 | 40.87586 | 29.97235 | 38951 ft | 450 kts | 114° |
| 2026-05-03 23:06 | 40.85107 | 30.04833 | 38949 ft | 450 kts | 114° |
| 2026-05-03 23:06 | 40.82618 | 30.12437 | 38944 ft | 452 kts | 114° |
| 2026-05-03 23:07 | 40.80115 | 30.20047 | 38941 ft | 452 kts | 114° |
| 2026-05-03 23:07 | 40.77609 | 30.27642 | 38918 ft | 450 kts | 114° |
| 2026-05-03 23:08 | 40.75105 | 30.35204 | 38940 ft | 449 kts | 114° |
| 2026-05-03 23:08 | 40.72603 | 30.42754 | 38931 ft | 449 kts | 114° |
| 2026-05-03 23:09 | 40.70094 | 30.50302 | 38924 ft | 449 kts | 114° |
| 2026-05-03 23:09 | 40.67598 | 30.57796 | 38925 ft | 450 kts | 115° |
| 2026-05-03 23:10 | 40.65075 | 30.65354 | 38900 ft | 450 kts | 115° |
| 2026-05-03 23:10 | 40.63801 | 30.69162 | 38414 ft | 456 kts | 115° |
| 2026-05-03 23:10 | 40.62630 | 30.73027 | 37883 ft | 454 kts | 108° |
| 2026-05-03 23:10 | 40.61761 | 30.77013 | 37312 ft | 452 kts | 106° |
| 2026-05-03 23:11 | 40.60958 | 30.81006 | 36704 ft | 450 kts | 106° |
| 2026-05-03 23:11 | 40.60163 | 30.84982 | 36099 ft | 447 kts | 106° |
| 2026-05-03 23:11 | 40.59357 | 30.88938 | 35417 ft | 447 kts | 107° |
| 2026-05-03 23:11 | 40.58538 | 30.92882 | 34719 ft | 447 kts | 107° |
| 2026-05-03 23:12 | 40.57708 | 30.96821 | 33996 ft | 446 kts | 107° |
| 2026-05-03 23:12 | 40.56875 | 31.00739 | 33270 ft | 445 kts | 107° |
| 2026-05-03 23:12 | 40.56038 | 31.04654 | 32488 ft | 444 kts | 107° |
| 2026-05-03 23:12 | 40.55203 | 31.08555 | 31784 ft | 442 kts | 107° |
| 2026-05-03 23:13 | 40.54373 | 31.12431 | 31217 ft | 437 kts | 107° |
| 2026-05-03 23:13 | 40.53554 | 31.16256 | 30663 ft | 431 kts | 107° |
| 2026-05-03 23:13 | 40.52743 | 31.20031 | 30114 ft | 427 kts | 107° |
| 2026-05-03 23:13 | 40.51937 | 31.23767 | 29570 ft | 422 kts | 107° |
| 2026-05-03 23:14 | 40.51152 | 31.27399 | 29033 ft | 417 kts | 107° |
| 2026-05-03 23:14 | 40.50364 | 31.31038 | 28486 ft | 412 kts | 107° |
| 2026-05-03 23:14 | 40.49582 | 31.34646 | 27944 ft | 408 kts | 107° |
| 2026-05-03 23:14 | 40.48809 | 31.38206 | 27411 ft | 403 kts | 107° |
| 2026-05-03 23:15 | 40.48040 | 31.41743 | 26884 ft | 400 kts | 107° |
| 2026-05-03 23:15 | 40.47277 | 31.45251 | 26352 ft | 396 kts | 107° |
| 2026-05-03 23:15 | 40.46523 | 31.48707 | 25837 ft | 393 kts | 107° |
| 2026-05-03 23:15 | 40.45772 | 31.52146 | 25319 ft | 389 kts | 107° |
| 2026-05-03 23:16 | 40.45029 | 31.55542 | 24814 ft | 386 kts | 107° |
| 2026-05-03 23:16 | 40.44291 | 31.58912 | 24305 ft | 383 kts | 107° |
| 2026-05-03 23:16 | 40.43570 | 31.62215 | 23799 ft | 380 kts | 107° |
| 2026-05-03 23:16 | 40.42842 | 31.65535 | 23315 ft | 377 kts | 107° |
| 2026-05-03 23:17 | 40.42118 | 31.68831 | 22815 ft | 374 kts | 107° |
| 2026-05-03 23:17 | 40.41398 | 31.72098 | 22325 ft | 371 kts | 107° |
| 2026-05-03 23:17 | 40.40682 | 31.75349 | 21836 ft | 369 kts | 107° |
| 2026-05-03 23:17 | 40.39972 | 31.78569 | 21352 ft | 366 kts | 107° |
| 2026-05-03 23:18 | 40.39266 | 31.81767 | 20872 ft | 364 kts | 107° |
| 2026-05-03 23:18 | 40.38564 | 31.84940 | 20386 ft | 361 kts | 107° |
| 2026-05-03 23:18 | 40.37865 | 31.88098 | 19913 ft | 359 kts | 107° |
| 2026-05-03 23:18 | 40.37170 | 31.91226 | 19435 ft | 356 kts | 107° |
| 2026-05-03 23:19 | 40.36481 | 31.94332 | 18963 ft | 353 kts | 107° |
| 2026-05-03 23:19 | 40.35793 | 31.97416 | 18404 ft | 353 kts | 108° |
| 2026-05-03 23:19 | 40.35102 | 32.00497 | 17905 ft | 351 kts | 108° |
| 2026-05-03 23:19 | 40.34415 | 32.03557 | 17429 ft | 348 kts | 108° |
| 2026-05-03 23:20 | 40.33740 | 32.06554 | 16962 ft | 346 kts | 108° |
| 2026-05-03 23:20 | 40.33238 | 32.09668 | 16478 ft | 346 kts | 93° |
| 2026-05-03 23:20 | 40.33468 | 32.12804 | 15982 ft | 346 kts | 83° |
| 2026-05-03 23:20 | 40.33848 | 32.15870 | 15510 ft | 344 kts | 82° |
| 2026-05-03 23:21 | 40.34230 | 32.18948 | 15060 ft | 342 kts | 82° |
| 2026-05-03 23:21 | 40.34600 | 32.22020 | 14609 ft | 340 kts | 82° |
| 2026-05-03 23:21 | 40.34957 | 32.25068 | 14168 ft | 337 kts | 83° |
| 2026-05-03 23:21 | 40.35305 | 32.28090 | 13745 ft | 333 kts | 82° |
| 2026-05-03 23:22 | 40.35925 | 32.34060 | 12879 ft | 328 kts | 90° |
| 2026-05-03 23:22 | 40.35563 | 32.36981 | 12551 ft | 322 kts | 104° |
| 2026-05-03 23:22 | 40.34995 | 32.39817 | 12166 ft | 320 kts | 105° |
| 2026-05-03 23:23 | 40.34424 | 32.42628 | 11781 ft | 318 kts | 105° |
| 2026-05-03 23:23 | 40.33861 | 32.45420 | 11408 ft | 317 kts | 104° |
| 2026-05-03 23:23 | 40.33306 | 32.48206 | 11015 ft | 315 kts | 104° |
| 2026-05-03 23:23 | 40.32757 | 32.50977 | 10742 ft | 310 kts | 104° |
| 2026-05-03 23:24 | 40.32231 | 32.53650 | 10675 ft | 298 kts | 104° |
| 2026-05-03 23:24 | 40.31724 | 32.56244 | 10557 ft | 289 kts | 104° |
| 2026-05-03 23:24 | 40.31231 | 32.58758 | 10449 ft | 281 kts | 104° |
| 2026-05-03 23:24 | 40.30757 | 32.61168 | 10330 ft | 274 kts | 104° |
| 2026-05-03 23:25 | 40.30220 | 32.63589 | 10219 ft | 273 kts | 114° |
| 2026-05-03 23:25 | 40.29007 | 32.65424 | 9973 ft | 274 kts | 148° |
| 2026-05-03 23:25 | 40.27217 | 32.66279 | 9690 ft | 275 kts | 165° |
| 2026-05-03 23:25 | 40.25357 | 32.66820 | 9346 ft | 273 kts | 166° |
| 2026-05-03 23:26 | 40.23522 | 32.67320 | 9155 ft | 265 kts | 166° |
| 2026-05-03 23:26 | 40.21732 | 32.67807 | 9019 ft | 260 kts | 166° |
| 2026-05-03 23:26 | 40.19973 | 32.68293 | 8886 ft | 255 kts | 166° |
| 2026-05-03 23:26 | 40.18254 | 32.68779 | 8778 ft | 250 kts | 166° |
| 2026-05-03 23:27 | 40.16573 | 32.69260 | 8671 ft | 244 kts | 166° |
| 2026-05-03 23:27 | 40.14934 | 32.69729 | 8555 ft | 238 kts | 165° |
| 2026-05-03 23:27 | 40.13340 | 32.70186 | 8467 ft | 232 kts | 166° |
| 2026-05-03 23:27 | 40.11788 | 32.70634 | 8401 ft | 223 kts | 165° |
| 2026-05-03 23:28 | 40.10281 | 32.71069 | 8297 ft | 220 kts | 165° |
| 2026-05-03 23:28 | 40.08798 | 32.71497 | 8184 ft | 216 kts | 165° |
| 2026-05-03 23:28 | 40.07358 | 32.71913 | 8098 ft | 213 kts | 165° |
| 2026-05-03 23:28 | 40.05929 | 32.72377 | 7999 ft | 211 kts | 155° |
| 2026-05-03 23:29 | 40.04845 | 32.73605 | 7811 ft | 207 kts | 122° |
| 2026-05-03 23:29 | 40.04003 | 32.75153 | 7583 ft | 213 kts | 125° |
| 2026-05-03 23:29 | 40.03128 | 32.76708 | 7351 ft | 210 kts | 125° |
| 2026-05-03 23:29 | 40.02281 | 32.78216 | 7083 ft | 202 kts | 124° |
| 2026-05-03 23:30 | 40.01464 | 32.79672 | 6869 ft | 196 kts | 124° |
| 2026-05-03 23:30 | 40.00662 | 32.81101 | 6633 ft | 194 kts | 124° |
| 2026-05-03 23:30 | 39.99863 | 32.82526 | 6410 ft | 194 kts | 124° |
| 2026-05-03 23:30 | 39.99095 | 32.83971 | 6185 ft | 195 kts | 115° |
| 2026-05-03 23:31 | 39.98926 | 32.85675 | 5948 ft | 191 kts | 75° |
| 2026-05-03 23:31 | 39.99608 | 32.87097 | 5749 ft | 186 kts | 42° |
| 2026-05-03 23:31 | 40.00617 | 32.88119 | 5550 ft | 182 kts | 36° |
| 2026-05-03 23:31 | 40.01645 | 32.89004 | 5414 ft | 170 kts | 34° |
| 2026-05-03 23:32 | 40.02598 | 32.89863 | 5238 ft | 163 kts | 36° |
| 2026-05-03 23:32 | 40.03475 | 32.90691 | 5066 ft | 148 kts | 37° |
| 2026-05-03 23:32 | 40.04273 | 32.91456 | 4870 ft | 141 kts | 37° |
| 2026-05-03 23:32 | 40.05080 | 32.92236 | 4664 ft | 144 kts | 37° |
| 2026-05-03 23:33 | 40.05875 | 32.93000 | 4493 ft | 143 kts | 37° |
| 2026-05-03 23:33 | 40.06692 | 32.93784 | 4308 ft | 145 kts | 37° |
| 2026-05-03 23:33 | 40.07501 | 32.94557 | 4103 ft | 143 kts | 37° |
| 2026-05-03 23:33 | 40.08298 | 32.95324 | 3914 ft | 143 kts | 37° |
| 2026-05-03 23:34 | 40.09097 | 32.96091 | 3729 ft | 142 kts | 37° |
| 2026-05-03 23:34 | 40.09882 | 32.96845 | 3541 ft | 143 kts | 37° |
| 2026-05-03 23:34 | 40.10686 | 32.97615 | 3360 ft | 143 kts | 37° |
| 2026-05-03 23:34 | 40.11506 | 32.98407 | 3135 ft | 146 kts | 37° |
| 2026-05-03 23:35 | 40.12237 | 32.99111 | 3116 ft | 113 kts | 36° |
| 2026-05-03 23:35 | 40.12750 | 32.99600 | 3122 ft | 70 kts | 36° |
| 2026-05-03 23:35 | 40.13003 | 32.99881 | 3124 ft | 22 kts | 57° |
| 2026-05-03 23:35 | 40.13047 | 32.99985 | 3122 ft | 12 kts | 65° |
| 2026-05-03 23:36 | 40.13081 | 33.00084 | 3125 ft | 12 kts | 66° |
| 2026-05-03 23:36 | 40.13071 | 33.00177 | 3125 ft | 12 kts | 152° |
| 2026-05-03 23:36 | 40.12991 | 33.00136 | 3123 ft | 16 kts | 216° |
| 2026-05-03 23:36 | 40.12882 | 33.00032 | 3121 ft | 22 kts | 216° |
| 2026-05-03 23:37 | 40.12756 | 32.99912 | 3122 ft | 22 kts | 216° |
| 2026-05-03 23:37 | 40.12631 | 32.99793 | 3122 ft | 22 kts | 216° |
| 2026-05-03 23:37 | 40.12510 | 32.99677 | 3121 ft | 21 kts | 216° |
| 2026-05-03 23:37 | 40.12393 | 32.99565 | 3119 ft | 21 kts | 216° |
| 2026-05-03 23:38 | 40.12279 | 32.99456 | 3118 ft | 20 kts | 216° |
| 2026-05-03 23:38 | 40.12170 | 32.99352 | 3117 ft | 19 kts | 217° |
| 2026-05-03 23:38 | 40.12063 | 32.99250 | 3115 ft | 19 kts | 216° |
| 2026-05-03 23:38 | 40.11964 | 32.99155 | 3114 ft | 15 kts | 216° |
| 2026-05-03 23:39 | 40.11897 | 32.99091 | 3113 ft | 10 kts | 216° |
| 2026-05-03 23:39 | 40.11845 | 32.99044 | 3113 ft | 9 kts | 205° |
| 2026-05-03 23:39 | 40.11791 | 32.99064 | 3112 ft | 9 kts | 132° |
| 2026-05-03 23:39 | 40.11745 | 32.99113 | 3112 ft | 9 kts | 155° |
| 2026-05-03 23:40 | 40.11711 | 32.99171 | 3112 ft | 8 kts | 94° |
| 2026-05-03 23:40 | 40.11729 | 32.99239 | 3112 ft | 8 kts | 68° |
| 2026-05-03 23:40 | 40.11747 | 32.99303 | 3112 ft | 7 kts | 71° |
| 2026-05-03 23:40 | 40.11760 | 32.99364 | 3112 ft | 6 kts | 75° |
| 2026-05-03 23:41 | 40.11761 | 32.99404 | 3112 ft | 4 kts | 119° |
| 2026-05-03 23:41 | 40.11737 | 32.99417 | 3112 ft | 4 kts | 166° |
| 2026-05-03 23:41 | 40.11713 | 32.99424 | 3112 ft | 2 kts | 168° |
| 2026-05-03 23:41 | 40.11704 | 32.99426 | 3112 ft | 0 kts | 168° |
| 2026-05-03 23:42 | 40.11703 | 32.99426 | 3112 ft | 0 kts | 168° |